Aviation Digital Data Service (ADDS)

Output produced by METARs form (2300 UTC 28 February 2015)
found at http://www.aviationweather.gov/adds/metars/
 
KTHV 282253Z AUTO 00000KT 10SM CLR M05/M17 A3073 RMK AO2 SLP419 T10501167
KTHV 282153Z AUTO 00000KT 10SM CLR M03/M19 A3073 RMK AO2 SLP417 T10331189
KTHV 282053Z AUTO 00000KT 10SM CLR M03/M21 A3073 RMK AO2 SLP419 T10281206 56020
KTHV 281953Z AUTO 28003KT 10SM CLR M04/M19 A3075 RMK AO2 SLP424 T10391194
KTHV 281853Z AUTO VRB05KT 10SM CLR M04/M19 A3076 RMK AO2 SLP429 T10441194
KTHV 281753Z AUTO VRB03KT 10SM CLR M04/M18 A3079 RMK AO2 SLP440 T10441183 11044 21178 58011
KTHV 281653Z AUTO 22003KT 10SM CLR M07/M19 A3083 RMK AO2 SLP451 T10671189
KTHV 281553Z AUTO 25003KT 10SM CLR M07/M19 A3083 RMK AO2 SLP452 T10671189
KTHV 281453Z AUTO 00000KT 10SM CLR M07/M19 A3083 RMK AO2 SLP450 T10721189 53016
KTHV 281353Z AUTO 00000KT 10SM CLR M09/M18 A3081 RMK AO2 SLP445 T10891183
KTHV 281253Z AUTO 00000KT 10SM CLR M13/M18 A3079 RMK AO2 SLP440 T11331183
KTHV 281153Z AUTO 25003KT 10SM CLR M18/M21 A3078 RMK AO2 SLP436 T11781211 11139 21178 51022
KTHV 281053Z AUTO 26003KT 10SM CLR M17/M21 A3076 RMK AO2 SLP431 T11721206
KTHV 280953Z AUTO 28003KT 10SM CLR M16/M19 A3074 RMK AO2 SLP422 T11561194
KTHV 280853Z AUTO 30004KT 10SM CLR M15/M20 A3071 RMK AO2 SLP411 T11501200 53018
KTHV 280753Z AUTO 00000KT 10SM CLR M15/M19 A3069 RMK AO2 SLP404 T11501189
KTHV 280653Z AUTO 28003KT 10SM CLR M16/M19 A3067 RMK AO2 SLP397 T11561194
KTHV 280553Z AUTO 28004KT 10SM CLR M14/M19 A3066 RMK AO2 SLP394 T11441194 11061 21150 51017
KTHV 280453Z AUTO 27003KT 10SM CLR M13/M19 A3065 RMK AO2 SLP390 T11331194 410331133
KTHV 280353Z AUTO 28004KT 10SM CLR M11/M18 A3063 RMK AO2 SLP384 T11061183
KTHV 280253Z AUTO 29006KT 10SM CLR M08/M18 A3061 RMK AO2 SLP375 T10831178 51028
KTHV 280153Z AUTO 31005KT 10SM CLR M09/M17 A3058 RMK AO2 SLP368 T10941172
KTHV 280053Z AUTO 31007KT 10SM CLR M07/M17 A3056 RMK AO2 SLP359 T10721167
KTHV 272353Z AUTO 31005KT 10SM CLR M07/M14 A3052 RMK AO2 SLP346 T10671144 11033 21067 53021
KTHV 272253Z AUTO 32004KT 10SM CLR M04/M14 A3048 RMK AO2 SLP333 T10441144
KTHV 272153Z AUTO 32005KT 10SM CLR M03/M13 A3047 RMK AO2 SLP329 T10331133
KTHV 272053Z AUTO 31009KT 10SM CLR M03/M13 A3046 RMK AO2 SLP323 T10331133 53011
KTHV 271953Z AUTO 32008KT 10SM CLR M03/M13 A3044 RMK AO2 SLP318 T10331128
KTHV 271853Z AUTO 31008KT 10SM FEW040 M03/M12 A3043 RMK AO2 SLP313 T10331122
KTHV 271753Z AUTO 29007KT 10SM CLR M04/M13 A3042 RMK AO2 SLP312 T10441133 11044 21078 50003
KTHV 271653Z AUTO 31009G15KT 10SM CLR M05/M14 A3043 RMK AO2 SLP315 T10501139
KTHV 271553Z AUTO 32009KT 10SM CLR M06/M14 A3042 RMK AO2 SLP312 T10561144
KTHV 271453Z AUTO 02007KT 10SM CLR M06/M14 A3042 RMK AO2 SLP310 T10611139 51033
KTHV 271353Z AUTO 36010KT 10SM OVC041 M07/M14 A3040 RMK AO2 SLP304 T10721139
KTHV 271253Z AUTO 33006KT 10SM OVC039 M07/M13 A3037 RMK AO2 SLP293 T10721128
KTHV 271153Z AUTO 36005KT 10SM OVC035 M07/M12 A3032 RMK AO2 SNE1056 SLP277 P0000 60000 T10721117 11033 21072 51037
KTHV 271102Z AUTO 34005KT 8SM OVC031 M07/M10 A3029 RMK AO2 SNE1056 P0000 T10671100